Record high temperature 107.1°F Record low temperature 10.6°F Record high gust 49.5 mph Record high average 23.3 mph Record daily rain 11.65 in. Record low windchill 2.7°F Record high barometer 30.818 in. Record low barometer 29.117 in.
Daily high pressure 29.617 in. Daily low pressure 29.381 in. Daily low windchill 37.5°F Daily high heat index 52.0°F Daily high gust speed 26.5 mph S Daily high average speed 13.5 mph SSW
On the Greenway Weather data
LAST READING AT TIME: 11:43 PM DATE: January 19 2017, time of next update: 11:44 pm
Current WeatherNight time/Dry/A few clouds Current Temperature 40.8°F (4.9°C), Apparent temp 39.1°F
Maximum Temperature (since midnight)52.0°F at: 1:56 PM Minimum Temperature (since midnight)40.8°F at: 11:38 PM
Average windspeed (ten minute)0.0 mph Wind Direction (ten minute)S (180°)
Windchill Temperature 40.8°F Maximum Gust (last hour)0.0 mph at: 11:00 PM
Maximum Gust (since midnight)26.5 mph at: 9:47 AM Maximum 1 minute average (since midnight)13.5 mph at: 12:49 PM
Rainfall (last hour)0.00 in. (0.0 mm) Rainfall (since midnight)0.01 in. (0.3 mm) at 12:48 PM
Rainfall This month 4.60 in. (116.8 mm) Rainfall To date this year 28.13 in. (714.5 mm)
Maximum rain per minute (last hour)0.00 in/min Maximum rain per hour (last 6 hours)0.00 in/hour
Yesterdays rainfall 1.47 in DewPoint 38.1°F (Wet Bulb :39.7°F )
Humidity 90 %, Humidex 38.6°F Barometer corrected to msl29.381 in. (995.0 hPa)
Pressure change -0.04 in. (last hour) Trend (last hour)FALLING
Pressure change (last 12 hours)-0.23 in Pressure change (last 6 hours)-0.17 in
Current Indoor Temp. 79.2°F
Current Indoor Hum. 27%
Current Solar 0 W/Mē
Maximum solar (since midnight) 702 W/Mē Minimum solar (since midnight)0 W/Mē
Current 00:00 hours of sunshine today, current sky: Night time/Dry/A few clouds
Sunshine hours for the year: 00:00 hrs Sunshine hours for the month: 00:00 hrs
Current evapotranspiration 0.01 inches per day. Yesterday's reading 0.01

This page is updated from recent data collected by a DAVIS VANTAGE PRO weather station Use the Reload or Refresh facility on your browser to retrieve the latest data.


Click here for the last 24 hour graph
Click here for the last 48 hour graph
Click here for the last 72 hour graph
Click here for the month to date graph


Weather report/warning/Metars

Expires:201701201230;;783764
FPUS56 KPQR 200513
ZFPPQR

ZONE FORECASTS FOR NORTHWEST OREGON AND SOUTHWEST WASHINGTON
NATIONAL WEATHER SERVICE PORTLAND OREGON
913 PM PST THU JAN 19 2017

SPOT TEMPERATURES ARE FOR TONIGHT...FRIDAY...FRIDAY NIGHT...
SATURDAY...SATURDAY NIGHT...AND SUNDAY.


ORZ006-WAZ039-201230-
GREATER PORTLAND METRO AREA-GREATER VANCOUVER AREA-
INCLUDING THE CITIES OF...HILLSBORO...PORTLAND...WILSONVILLE...
OREGON CITY...GRESHAM...TROUTDALE...VANCOUVER...BATTLE GROUND...
RIDGEFIELD...WASHOUGAL...YACOLT...AMBOY
913 PM PST THU JAN 19 2017

.TONIGHT...CLOUDY. CHANCE OF SHOWERS IN THE EVENING...THEN A SLIGHT
CHANCE OF SHOWERS AFTER MIDNIGHT. LOWS AROUND 35. EAST WIND 5 TO
10 MPH. GUSTS TO 20 MPH AFTER MIDNIGHT. NEAR THE GORGE...GUSTS TO
25 MPH INCREASING TO 35 MPH AFTER MIDNIGHT. CHANCE OF PRECIPITATION
50 PERCENT. RAINFALL AMOUNTS LESS THAN A TENTH OF AN INCH. 
.FRIDAY...RAIN IN THE MORNING...THEN SHOWERS LIKELY IN THE AFTERNOON.
HIGHS AROUND 40. EAST WIND 10 TO 15 MPH...EXCEPT EAST WIND 15 TO
25 MPH WITH GUSTS TO 35 MPH NEAR THE GORGE. CHANCE OF
PRECIPITATION 90 PERCENT. RAINFALL AMOUNTS AROUND A TENTH OF AN
INCH.
.FRIDAY NIGHT...CLOUDY WITH A 50 PERCENT CHANCE OF SHOWERS. LOWS
AROUND 35. EAST WIND 5 TO 10 MPH...EXCEPT EAST WIND 15 TO 25 MPH NEAR
THE GORGE. RAINFALL AMOUNTS LESS THAN A TENTH OF AN INCH.
.SATURDAY...SHOWERS. HIGHS 40 TO 45. SOUTHEAST WIND 5 TO 15 MPH.
CHANCE OF PRECIPITATION 90 PERCENT.
.SATURDAY NIGHT...SHOWERS LIKELY IN THE EVENING...THEN RAIN AFTER
MIDNIGHT. LOWS AROUND 35. SOUTH WIND 5 TO 15 MPH SHIFTING TO THE
EAST 5 TO 10 MPH AFTER MIDNIGHT. CHANCE OF PRECIPITATION 80 PERCENT.
.SUNDAY...RAIN. HIGHS 40 TO 45. CHANCE OF RAIN 90 PERCENT. 
.SUNDAY NIGHT...SHOWERS LIKELY. LOWS 30 TO 35. CHANCE OF
PRECIPITATION 70 PERCENT. 
.MONDAY...CLOUDY WITH A 50 PERCENT CHANCE OF SHOWERS. HIGHS AROUND
45. 
.MONDAY NIGHT...CLOUDY WITH A 30 PERCENT CHANCE OF SHOWERS. LOWS
AROUND 30. 
.TUESDAY...PARTLY CLOUDY. HIGHS AROUND 40. 
.TUESDAY NIGHT...PARTLY CLOUDY. LOWS 25 TO 30. 
.WEDNESDAY...PARTLY CLOUDY. HIGHS AROUND 40. 
.WEDNESDAY NIGHT...PARTLY CLOUDY. LOWS 25 TO 30. 
.THURSDAY...PARTLY CLOUDY. HIGHS 35 TO 40. 

&&
                    TEMPERATURE           
PORTLAND          37  41  35  42  36  41
HILLSBORO         36  42  34  44  35  42

$$
=


PORTLAND-HILLSBORO AIRPORT, OR, United States (KHIO) 45-33N 122-57W 68M
Jan 20, 2017 - 01:53 AM EST / 2017.01.20 0653 UTC
Wind: from the SSE (150 degrees) at 3 MPH (3 KT):0
Visibility: 10 mile(s):0
Sky conditions: overcast
Temperature: 43.0 F (6.1 C)
Dew Point: 37.9 F (3.3 C)
Relative Humidity: 82%
Pressure (altimeter): 29.42 in. Hg (996 hPa)
ob: KHIO 200653Z AUTO 15003KT 10SM OVC065 06/03 A2942 RMK AO2 SLP962 T00610033
cycle: 7
PORTLAND INTERNATIONAL  AIRPORT, OR, United States (KPDX) 45-35N 122-36W 7M
Jan 20, 2017 - 01:53 AM EST / 2017.01.20 0653 UTC
Wind: from the ESE (110 degrees) at 12 MPH (10 KT):0
Visibility: 10 mile(s):0
Sky conditions: mostly cloudy
Temperature: 37.0 F (2.8 C)
Dew Point: 35.1 F (1.7 C)
Relative Humidity: 92%
Pressure (altimeter): 29.44 in. Hg (996 hPa)
ob: KPDX 200653Z 11010KT 10SM FEW055 BKN250 03/02 A2944 RMK AO2 SLP968 T00280017
cycle: 7
PORTLAND-TROUTDALE AIRPORT, OR, United States (KTTD) 45-33N 122-25W 14M
Jan 20, 2017 - 01:53 AM EST / 2017.01.20 0653 UTC
Wind: from the E (090 degrees) at 20 MPH (17 KT) gusting to 28 MPH (24 KT):0
Visibility: 10 mile(s):0
Sky conditions: partly cloudy
Temperature: 39.0 F (3.9 C)
Dew Point: 36.0 F (2.2 C)
Relative Humidity: 88%
Pressure (altimeter): 29.45 in. Hg (997 hPa)
ob: KTTD 200653Z AUTO 09017G24KT 10SM SCT065 04/02 A2945 RMK AO2 SLP973 T00390022
cycle: 7
MCMINNVILLE MUNICIPAL AIRPORT , OR, United States (KMMV) 45-12N 123-08W 48M
Jan 20, 2017 - 01:53 AM EST / 2017.01.20 0653 UTC
Wind: from the NNE (030 degrees) at 3 MPH (3 KT):0
Visibility: 10 mile(s):0
Sky conditions: mostly cloudy
Precipitation last hour: A trace
Temperature: 42.1 F (5.6 C)
Dew Point: 39.0 F (3.9 C)
Relative Humidity: 88%
Pressure (altimeter): 29.42 in. Hg (996 hPa)
ob: KMMV 200653Z AUTO 03003KT 10SM FEW060 FEW090 BKN110 06/04 A2942 RMK AO2 RAB34E44 SLP961 P0000 T00560039
cycle: 7
SALEM MCNARY FIELD, OR, United States (KSLE) 44-54N 123-00W 59M
Jan 20, 2017 - 01:56 AM EST / 2017.01.20 0656 UTC
Wind: Calm:0
Visibility: 10 mile(s):0
Sky conditions: mostly clear
Temperature: 39.0 F (3.9 C)
Dew Point: 37.0 F (2.8 C)
Relative Humidity: 92%
Pressure (altimeter): 29.4 in. Hg (995 hPa)
ob: KSLE 200656Z AUTO 00000KT 10SM FEW120 04/03 A2940 RMK AO2 SLP955 T00390028
cycle: 7
REDMOND ROBERTS FIELD, OR, United States (KRDM) 44-15N 121-08W
Jan 20, 2017 - 01:56 AM EST / 2017.01.20 0656 UTC
Wind: from the WSW (240 degrees) at 5 MPH (4 KT):0
Visibility: 10 mile(s):0
Sky conditions: mostly clear
Temperature: 28.9 F (-1.7 C)
Windchill: 23 F (-5 C):1
Dew Point: 21.9 F (-5.6 C)
Relative Humidity: 74%
Pressure (altimeter): 29.45 in. Hg (997 hPa)
ob: KRDM 200656Z AUTO 24004KT 10SM FEW065 M02/M06 A2945 RMK AO2 SLP983 T10171056
cycle: 7

Date: 1/19/2017
Sunrise at:
07:44 am

Sunset at:
04:58 pm

Moonrise at:
12:09 am 01/19/17

Moonset at:
11:33 am 01/19/17

First Quarter  January 5 2017
Full moon  January 12 2017
Last QuarterJanuary 19 2017
New moon January 28 2017
Moon age: 21 days,14 hours,48 minutes,56%
Hours of possible daylight today was 09:14:00



Use the RELOAD facility on your browser to retrieve the latest data.

Click here for current Fire weather info
Click here for the daily CLIMATOLOGICAL SUMMARY
Click here for a daily update of the averages/extremes to date for the month




Created by "Weather Display" software version 10.37R at this start time/date 10:16:00 AM 12/28/2016




On The Greenway Weather Web Site

 
 
HELP US OUT
Help us keep this weather station on the web. for the Tigard / Portland internet users to use. If you would like to help, click the donate button below
 
This site is purely funded by donations and by myself (Ray Cooper)
Anything you can do will help keep this station on the net
Average cost per year is $665 to publish and host this site excluding the cost of the weather equipment
Buyastrostuff.com is kind enough to host our DNS and email at no cost.
THANKS GUYS & Gals for helping
Have a Question,or just want to talk. Contact me at:
Ray Cooper @ Buyastrostuff.com
 

Weather Underground PWS KORTIGAR12 Weather Underground PWS KORTIGAR12